Agness, Oregon
Current Conditions -  °F | °C
As of 8:28 PM on Thursday 18 Dec 2014 (Local Time) from KBOK Reporting Station
Heavy Rain Heavy Rain  
Wind Chill: 10°   Ceiling: 1400
Heat Index: 10°   Visibility: 1.5mi
Dew Point: 10°   Wind: 9mph
Humidity: 100%   Direction: 140°SE
Pressure: 29.95"   Gusts: 21mph
Location:  42.56°N, 124.07°W
Report Text: KBOK 190428Z AUTO 14008G18KT 1 1/2SM +RA BR FEW001 BKN014 OVC019 10/10 A2995 RMK AO2 BKN V OVC P0014
Loading
Personal Weather Stations






























Interactive Weather Map New forecast layout! Learn more

10-Day Weather Forecast

Advertisements
Track Severe Weather on mobile